sensor_id;sensor_type;location;lat;lon;timestamp;pressure;altitude;pressure_sealevel;temperature
9985;BMP180;16737;50.932;6.780;2022-10-16T00:00:42;99837.00;;;19.50
9985;BMP180;16737;50.932;6.780;2022-10-16T00:03:10;99834.00;;;19.50
9985;BMP180;16737;50.932;6.780;2022-10-16T00:05:43;99850.00;;;19.50
9985;BMP180;16737;50.932;6.780;2022-10-16T00:08:11;99846.00;;;19.50
9985;BMP180;16737;50.932;6.780;2022-10-16T00:10:39;99842.00;;;19.50
9985;BMP180;16737;50.932;6.780;2022-10-16T00:13:07;99855.00;;;19.50
9985;BMP180;16737;50.932;6.780;2022-10-16T00:15:34;99845.00;;;19.50
9985;BMP180;16737;50.932;6.780;2022-10-16T00:18:04;99855.00;;;19.50
9985;BMP180;16737;50.932;6.780;2022-10-16T00:20:34;99853.00;;;19.50
9985;BMP180;16737;50.932;6.780;2022-10-16T00:23:03;99856.00;;;19.50
9985;BMP180;16737;50.932;6.780;2022-10-16T00:25:30;99848.00;;;19.50
9985;BMP180;16737;50.932;6.780;2022-10-16T00:27:59;99856.00;;;19.50
9985;BMP180;16737;50.932;6.780;2022-10-16T00:30:26;99840.00;;;19.50
9985;BMP180;16737;50.932;6.780;2022-10-16T00:32:54;99836.00;;;19.50
9985;BMP180;16737;50.932;6.780;2022-10-16T00:35:23;99831.00;;;19.50
9985;BMP180;16737;50.932;6.780;2022-10-16T00:37:50;99832.00;;;19.50
9985;BMP180;16737;50.932;6.780;2022-10-16T00:40:17;99842.00;;;19.50
9985;BMP180;16737;50.932;6.780;2022-10-16T00:42:44;99840.00;;;19.50
9985;BMP180;16737;50.932;6.780;2022-10-16T00:45:11;99828.00;;;19.50
9985;BMP180;16737;50.932;6.780;2022-10-16T00:47:42;99839.00;;;19.40
9985;BMP180;16737;50.932;6.780;2022-10-16T00:50:18;99837.00;;;19.40
9985;BMP180;16737;50.932;6.780;2022-10-16T00:52:50;99835.00;;;19.40
9985;BMP180;16737;50.932;6.780;2022-10-16T00:55:18;99831.00;;;19.40
9985;BMP180;16737;50.932;6.780;2022-10-16T00:57:46;99833.00;;;19.40
9985;BMP180;16737;50.932;6.780;2022-10-16T01:00:18;99836.00;;;19.40
9985;BMP180;16737;50.932;6.780;2022-10-16T01:02:52;99846.00;;;19.40
9985;BMP180;16737;50.932;6.780;2022-10-16T01:05:21;99831.00;;;19.40
9985;BMP180;16737;50.932;6.780;2022-10-16T01:07:58;99841.00;;;19.30
9985;BMP180;16737;50.932;6.780;2022-10-16T01:10:36;99836.00;;;19.30
9985;BMP180;16737;50.932;6.780;2022-10-16T01:13:08;99840.00;;;19.30
9985;BMP180;16737;50.932;6.780;2022-10-16T01:15:42;99852.00;;;19.30
9985;BMP180;16737;50.932;6.780;2022-10-16T01:18:18;99853.00;;;19.30
9985;BMP180;16737;50.932;6.780;2022-10-16T01:20:52;99859.00;;;19.20
9985;BMP180;16737;50.932;6.780;2022-10-16T01:23:45;99857.00;;;19.20
9985;BMP180;16737;50.932;6.780;2022-10-16T01:26:30;99855.00;;;19.10
9985;BMP180;16737;50.932;6.780;2022-10-16T01:29:07;99844.00;;;19.10
9985;BMP180;16737;50.932;6.780;2022-10-16T01:31:39;99834.00;;;19.10
9985;BMP180;16737;50.932;6.780;2022-10-16T01:34:14;99844.00;;;19.00
9985;BMP180;16737;50.932;6.780;2022-10-16T01:36:47;99861.00;;;19.00
9985;BMP180;16737;50.932;6.780;2022-10-16T01:39:23;99863.00;;;19.00
9985;BMP180;16737;50.932;6.780;2022-10-16T01:42:00;99858.00;;;18.90
9985;BMP180;16737;50.932;6.780;2022-10-16T01:44:33;99863.00;;;18.90
9985;BMP180;16737;50.932;6.780;2022-10-16T01:47:03;99860.00;;;18.90
9985;BMP180;16737;50.932;6.780;2022-10-16T01:49:34;99866.00;;;18.90
9985;BMP180;16737;50.932;6.780;2022-10-16T01:52:09;99860.00;;;18.90
9985;BMP180;16737;50.932;6.780;2022-10-16T01:54:41;99877.00;;;18.90
9985;BMP180;16737;50.932;6.780;2022-10-16T01:57:12;99864.00;;;18.90
9985;BMP180;16737;50.932;6.780;2022-10-16T01:59:46;99868.00;;;18.90
9985;BMP180;16737;50.932;6.780;2022-10-16T02:02:15;99857.00;;;18.90
9985;BMP180;16737;50.932;6.780;2022-10-16T02:04:48;99858.00;;;18.90
9985;BMP180;16737;50.932;6.780;2022-10-16T02:07:16;99859.00;;;18.90
9985;BMP180;16737;50.932;6.780;2022-10-16T02:09:46;99870.00;;;18.90
9985;BMP180;16737;50.932;6.780;2022-10-16T02:12:18;99869.00;;;18.80
9985;BMP180;16737;50.932;6.780;2022-10-16T02:14:48;99880.00;;;18.90
9985;BMP180;16737;50.932;6.780;2022-10-16T02:17:17;99875.00;;;18.90
9985;BMP180;16737;50.932;6.780;2022-10-16T02:19:47;99873.00;;;18.90
9985;BMP180;16737;50.932;6.780;2022-10-16T02:22:22;99866.00;;;18.90
9985;BMP180;16737;50.932;6.780;2022-10-16T02:24:56;99872.00;;;19.00
9985;BMP180;16737;50.932;6.780;2022-10-16T02:27:28;99870.00;;;19.00
9985;BMP180;16737;50.932;6.780;2022-10-16T02:30:05;99868.00;;;19.00
9985;BMP180;16737;50.932;6.780;2022-10-16T02:32:38;99877.00;;;19.00
9985;BMP180;16737;50.932;6.780;2022-10-16T02:35:08;99884.00;;;19.00
9985;BMP180;16737;50.932;6.780;2022-10-16T02:37:37;99890.00;;;19.00
9985;BMP180;16737;50.932;6.780;2022-10-16T02:40:07;99876.00;;;19.00
9985;BMP180;16737;50.932;6.780;2022-10-16T02:42:36;99870.00;;;19.00
9985;BMP180;16737;50.932;6.780;2022-10-16T02:45:06;99867.00;;;19.00
9985;BMP180;16737;50.932;6.780;2022-10-16T02:47:34;99887.00;;;19.00
9985;BMP180;16737;50.932;6.780;2022-10-16T02:50:01;99884.00;;;19.00
9985;BMP180;16737;50.932;6.780;2022-10-16T02:52:28;99875.00;;;19.00
9985;BMP180;16737;50.932;6.780;2022-10-16T02:54:55;99887.00;;;19.00
9985;BMP180;16737;50.932;6.780;2022-10-16T02:57:21;99888.00;;;19.00
9985;BMP180;16737;50.932;6.780;2022-10-16T02:59:48;99889.00;;;19.00
9985;BMP180;16737;50.932;6.780;2022-10-16T03:02:17;99885.00;;;19.10
9985;BMP180;16737;50.932;6.780;2022-10-16T03:04:44;99886.00;;;19.00
9985;BMP180;16737;50.932;6.780;2022-10-16T03:07:11;99867.00;;;19.00
9985;BMP180;16737;50.932;6.780;2022-10-16T03:09:38;99861.00;;;19.00
9985;BMP180;16737;50.932;6.780;2022-10-16T03:12:05;99856.00;;;19.00
9985;BMP180;16737;50.932;6.780;2022-10-16T03:14:32;99856.00;;;19.00
9985;BMP180;16737;50.932;6.780;2022-10-16T03:16:59;99865.00;;;19.00
9985;BMP180;16737;50.932;6.780;2022-10-16T03:19:27;99854.00;;;19.00
9985;BMP180;16737;50.932;6.780;2022-10-16T03:21:54;99854.00;;;19.00
9985;BMP180;16737;50.932;6.780;2022-10-16T03:24:21;99865.00;;;19.00
9985;BMP180;16737;50.932;6.780;2022-10-16T03:26:48;99885.00;;;19.00
9985;BMP180;16737;50.932;6.780;2022-10-16T03:29:15;99873.00;;;19.00
9985;BMP180;16737;50.932;6.780;2022-10-16T03:31:42;99864.00;;;18.90
9985;BMP180;16737;50.932;6.780;2022-10-16T03:34:08;99847.00;;;18.90
9985;BMP180;16737;50.932;6.780;2022-10-16T03:36:37;99860.00;;;18.90
9985;BMP180;16737;50.932;6.780;2022-10-16T03:39:04;99873.00;;;18.90
9985;BMP180;16737;50.932;6.780;2022-10-16T03:41:30;99876.00;;;18.90
9985;BMP180;16737;50.932;6.780;2022-10-16T03:43:57;99872.00;;;18.90
9985;BMP180;16737;50.932;6.780;2022-10-16T03:46:24;99873.00;;;18.90
9985;BMP180;16737;50.932;6.780;2022-10-16T03:48:51;99872.00;;;18.90
9985;BMP180;16737;50.932;6.780;2022-10-16T03:51:18;99879.00;;;18.90
9985;BMP180;16737;50.932;6.780;2022-10-16T03:53:47;99898.00;;;18.90
9985;BMP180;16737;50.932;6.780;2022-10-16T03:56:14;99903.00;;;19.00
9985;BMP180;16737;50.932;6.780;2022-10-16T03:58:41;99888.00;;;19.00
9985;BMP180;16737;50.932;6.780;2022-10-16T04:01:07;99909.00;;;19.00
9985;BMP180;16737;50.932;6.780;2022-10-16T04:03:34;99896.00;;;19.00
9985;BMP180;16737;50.932;6.780;2022-10-16T04:06:01;99896.00;;;19.00
9985;BMP180;16737;50.932;6.780;2022-10-16T04:08:28;99911.00;;;19.00
9985;BMP180;16737;50.932;6.780;2022-10-16T04:10:56;99898.00;;;19.00
9985;BMP180;16737;50.932;6.780;2022-10-16T04:13:23;99913.00;;;19.00
9985;BMP180;16737;50.932;6.780;2022-10-16T04:15:50;99907.00;;;19.00
9985;BMP180;16737;50.932;6.780;2022-10-16T04:18:17;99903.00;;;19.00
9985;BMP180;16737;50.932;6.780;2022-10-16T04:20:44;99908.00;;;19.00
9985;BMP180;16737;50.932;6.780;2022-10-16T04:23:11;99895.00;;;19.00
9985;BMP180;16737;50.932;6.780;2022-10-16T04:25:38;99911.00;;;19.00
9985;BMP180;16737;50.932;6.780;2022-10-16T04:28:06;99908.00;;;19.00
9985;BMP180;16737;50.932;6.780;2022-10-16T04:30:33;99903.00;;;19.10
9985;BMP180;16737;50.932;6.780;2022-10-16T04:33:00;99915.00;;;19.10
9985;BMP180;16737;50.932;6.780;2022-10-16T04:35:27;99907.00;;;19.10
9985;BMP180;16737;50.932;6.780;2022-10-16T04:37:57;99909.00;;;19.10
9985;BMP180;16737;50.932;6.780;2022-10-16T04:40:23;99920.00;;;19.10
9985;BMP180;16737;50.932;6.780;2022-10-16T04:42:51;99925.00;;;19.00
9985;BMP180;16737;50.932;6.780;2022-10-16T04:45:19;99924.00;;;19.00
9985;BMP180;16737;50.932;6.780;2022-10-16T04:47:46;99923.00;;;19.00
9985;BMP180;16737;50.932;6.780;2022-10-16T04:50:13;99929.00;;;19.00
9985;BMP180;16737;50.932;6.780;2022-10-16T04:52:40;99937.00;;;19.00
9985;BMP180;16737;50.932;6.780;2022-10-16T04:55:07;99940.00;;;19.00
9985;BMP180;16737;50.932;6.780;2022-10-16T04:57:34;99948.00;;;19.00
9985;BMP180;16737;50.932;6.780;2022-10-16T05:00:02;99943.00;;;19.10
9985;BMP180;16737;50.932;6.780;2022-10-16T05:02:30;99947.00;;;19.10
9985;BMP180;16737;50.932;6.780;2022-10-16T05:04:57;99947.00;;;19.10
9985;BMP180;16737;50.932;6.780;2022-10-16T05:07:24;99958.00;;;19.00
9985;BMP180;16737;50.932;6.780;2022-10-16T05:09:51;99961.00;;;19.00
9985;BMP180;16737;50.932;6.780;2022-10-16T05:12:19;99960.00;;;19.00
9985;BMP180;16737;50.932;6.780;2022-10-16T05:14:46;99972.00;;;19.00
9985;BMP180;16737;50.932;6.780;2022-10-16T05:17:13;99969.00;;;19.10
9985;BMP180;16737;50.932;6.780;2022-10-16T05:19:41;99962.00;;;19.10
9985;BMP180;16737;50.932;6.780;2022-10-16T05:22:08;99951.00;;;19.10
9985;BMP180;16737;50.932;6.780;2022-10-16T05:24:35;99959.00;;;19.10
9985;BMP180;16737;50.932;6.780;2022-10-16T05:27:02;99967.00;;;19.10
9985;BMP180;16737;50.932;6.780;2022-10-16T05:29:29;99966.00;;;19.10
9985;BMP180;16737;50.932;6.780;2022-10-16T05:31:56;99967.00;;;19.20
9985;BMP180;16737;50.932;6.780;2022-10-16T05:34:23;99983.00;;;19.20
9985;BMP180;16737;50.932;6.780;2022-10-16T05:36:51;99985.00;;;19.20
9985;BMP180;16737;50.932;6.780;2022-10-16T05:39:18;99986.00;;;19.20
9985;BMP180;16737;50.932;6.780;2022-10-16T05:41:45;99992.00;;;19.20
9985;BMP180;16737;50.932;6.780;2022-10-16T05:44:12;99975.00;;;19.20
9985;BMP180;16737;50.932;6.780;2022-10-16T05:46:39;99975.00;;;19.20
9985;BMP180;16737;50.932;6.780;2022-10-16T05:49:06;99976.00;;;19.20
9985;BMP180;16737;50.932;6.780;2022-10-16T05:51:33;99932.00;;;19.20
9985;BMP180;16737;50.932;6.780;2022-10-16T05:54:01;99989.00;;;19.20
9985;BMP180;16737;50.932;6.780;2022-10-16T05:56:28;100004.00;;;19.20
9985;BMP180;16737;50.932;6.780;2022-10-16T05:58:55;100008.00;;;19.20
9985;BMP180;16737;50.932;6.780;2022-10-16T06:01:22;100012.00;;;19.20
9985;BMP180;16737;50.932;6.780;2022-10-16T06:03:50;99993.00;;;19.20
9985;BMP180;16737;50.932;6.780;2022-10-16T06:06:19;100023.00;;;19.10
9985;BMP180;16737;50.932;6.780;2022-10-16T06:08:48;100024.00;;;19.10
9985;BMP180;16737;50.932;6.780;2022-10-16T06:11:21;100027.00;;;19.10
9985;BMP180;16737;50.932;6.780;2022-10-16T06:13:49;100019.00;;;19.10
9985;BMP180;16737;50.932;6.780;2022-10-16T06:16:17;100035.00;;;19.10
9985;BMP180;16737;50.932;6.780;2022-10-16T06:18:44;100032.00;;;19.10
9985;BMP180;16737;50.932;6.780;2022-10-16T06:21:14;100028.00;;;19.10
9985;BMP180;16737;50.932;6.780;2022-10-16T06:23:42;100032.00;;;19.10
9985;BMP180;16737;50.932;6.780;2022-10-16T06:26:15;100035.00;;;19.10
9985;BMP180;16737;50.932;6.780;2022-10-16T06:28:44;100032.00;;;19.10
9985;BMP180;16737;50.932;6.780;2022-10-16T06:31:12;100026.00;;;19.00
9985;BMP180;16737;50.932;6.780;2022-10-16T06:33:39;100044.00;;;19.00
9985;BMP180;16737;50.932;6.780;2022-10-16T06:36:09;100049.00;;;19.00
9985;BMP180;16737;50.932;6.780;2022-10-16T06:38:37;100053.00;;;19.00
9985;BMP180;16737;50.932;6.780;2022-10-16T06:41:06;100065.00;;;19.00
9985;BMP180;16737;50.932;6.780;2022-10-16T06:43:34;100059.00;;;19.00
9985;BMP180;16737;50.932;6.780;2022-10-16T06:46:04;100067.00;;;19.00
9985;BMP180;16737;50.932;6.780;2022-10-16T06:48:33;100067.00;;;19.10
9985;BMP180;16737;50.932;6.780;2022-10-16T06:51:02;100078.00;;;19.10
9985;BMP180;16737;50.932;6.780;2022-10-16T06:53:32;100089.00;;;19.10
9985;BMP180;16737;50.932;6.780;2022-10-16T06:56:07;100086.00;;;19.10
9985;BMP180;16737;50.932;6.780;2022-10-16T06:58:34;100083.00;;;19.20
9985;BMP180;16737;50.932;6.780;2022-10-16T07:01:03;100095.00;;;19.20
9985;BMP180;16737;50.932;6.780;2022-10-16T07:03:30;100102.00;;;19.20
9985;BMP180;16737;50.932;6.780;2022-10-16T07:06:02;100099.00;;;19.30
9985;BMP180;16737;50.932;6.780;2022-10-16T07:08:31;100091.00;;;19.30
9985;BMP180;16737;50.932;6.780;2022-10-16T07:11:00;100088.00;;;19.40
9985;BMP180;16737;50.932;6.780;2022-10-16T07:13:27;100105.00;;;19.40
9985;BMP180;16737;50.932;6.780;2022-10-16T07:15:54;100105.00;;;19.50
9985;BMP180;16737;50.932;6.780;2022-10-16T07:18:22;100104.00;;;19.50
9985;BMP180;16737;50.932;6.780;2022-10-16T07:20:52;100118.00;;;19.60
9985;BMP180;16737;50.932;6.780;2022-10-16T07:23:19;100135.00;;;19.60
9985;BMP180;16737;50.932;6.780;2022-10-16T07:25:53;100141.00;;;19.60
9985;BMP180;16737;50.932;6.780;2022-10-16T07:28:21;100147.00;;;19.70
9985;BMP180;16737;50.932;6.780;2022-10-16T07:30:48;100142.00;;;19.70
9985;BMP180;16737;50.932;6.780;2022-10-16T07:33:15;100138.00;;;19.80
9985;BMP180;16737;50.932;6.780;2022-10-16T07:35:50;100147.00;;;19.80
9985;BMP180;16737;50.932;6.780;2022-10-16T07:38:17;100144.00;;;19.90
9985;BMP180;16737;50.932;6.780;2022-10-16T07:40:45;100158.00;;;19.90
9985;BMP180;16737;50.932;6.780;2022-10-16T07:43:13;100157.00;;;20.00
9985;BMP180;16737;50.932;6.780;2022-10-16T07:45:47;100163.00;;;20.00
9985;BMP180;16737;50.932;6.780;2022-10-16T07:48:15;100169.00;;;20.00
9985;BMP180;16737;50.932;6.780;2022-10-16T07:50:43;100164.00;;;20.10
9985;BMP180;16737;50.932;6.780;2022-10-16T07:53:12;100171.00;;;20.10
9985;BMP180;16737;50.932;6.780;2022-10-16T07:55:39;100170.00;;;20.10
9985;BMP180;16737;50.932;6.780;2022-10-16T07:58:07;100175.00;;;20.20
9985;BMP180;16737;50.932;6.780;2022-10-16T08:00:35;100182.00;;;20.20
9985;BMP180;16737;50.932;6.780;2022-10-16T08:03:02;100188.00;;;20.20
9985;BMP180;16737;50.932;6.780;2022-10-16T08:05:32;100197.00;;;20.20
9985;BMP180;16737;50.932;6.780;2022-10-16T08:08:01;100185.00;;;20.20
9985;BMP180;16737;50.932;6.780;2022-10-16T08:10:29;100191.00;;;20.30
9985;BMP180;16737;50.932;6.780;2022-10-16T08:12:57;100204.00;;;20.30
9985;BMP180;16737;50.932;6.780;2022-10-16T08:15:25;100211.00;;;20.40
9985;BMP180;16737;50.932;6.780;2022-10-16T08:17:57;100210.00;;;20.50
9985;BMP180;16737;50.932;6.780;2022-10-16T08:20:25;100217.00;;;20.60
9985;BMP180;16737;50.932;6.780;2022-10-16T08:22:53;100224.00;;;20.70
9985;BMP180;16737;50.932;6.780;2022-10-16T08:25:22;100215.00;;;20.70
9985;BMP180;16737;50.932;6.780;2022-10-16T08:27:50;100213.00;;;20.80
9985;BMP180;16737;50.932;6.780;2022-10-16T08:30:20;100230.00;;;20.90
9985;BMP180;16737;50.932;6.780;2022-10-16T08:32:47;100228.00;;;21.00
9985;BMP180;16737;50.932;6.780;2022-10-16T08:35:15;100239.00;;;21.10
9985;BMP180;16737;50.932;6.780;2022-10-16T08:37:42;100241.00;;;21.20
9985;BMP180;16737;50.932;6.780;2022-10-16T08:40:18;100242.00;;;21.20
9985;BMP180;16737;50.932;6.780;2022-10-16T08:43:26;100244.00;;;21.30
9985;BMP180;16737;50.932;6.780;2022-10-16T08:46:24;100246.00;;;21.40
9985;BMP180;16737;50.932;6.780;2022-10-16T08:48:59;100219.00;;;21.50
9985;BMP180;16737;50.932;6.780;2022-10-16T08:51:29;100253.00;;;21.60
9985;BMP180;16737;50.932;6.780;2022-10-16T08:54:01;100259.00;;;21.70
9985;BMP180;16737;50.932;6.780;2022-10-16T08:56:28;100257.00;;;21.80
9985;BMP180;16737;50.932;6.780;2022-10-16T08:58:58;100272.00;;;21.80
9985;BMP180;16737;50.932;6.780;2022-10-16T09:01:38;100268.00;;;21.90
9985;BMP180;16737;50.932;6.780;2022-10-16T09:04:52;100261.00;;;22.00
9985;BMP180;16737;50.932;6.780;2022-10-16T09:07:30;100269.00;;;22.10
9985;BMP180;16737;50.932;6.780;2022-10-16T09:10:26;100278.00;;;22.10
9985;BMP180;16737;50.932;6.780;2022-10-16T09:13:03;100278.00;;;22.20
9985;BMP180;16737;50.932;6.780;2022-10-16T09:15:45;100281.00;;;22.30
9985;BMP180;16737;50.932;6.780;2022-10-16T09:18:21;100279.00;;;22.30
9985;BMP180;16737;50.932;6.780;2022-10-16T09:21:00;100276.00;;;22.40
9985;BMP180;16737;50.932;6.780;2022-10-16T09:23:30;100275.00;;;22.50
9985;BMP180;16737;50.932;6.780;2022-10-16T09:25:59;100277.00;;;22.50
9985;BMP180;16737;50.932;6.780;2022-10-16T09:28:26;100267.00;;;22.60
9985;BMP180;16737;50.932;6.780;2022-10-16T09:30:54;100283.00;;;22.70
9985;BMP180;16737;50.932;6.780;2022-10-16T09:33:28;100288.00;;;22.80
9985;BMP180;16737;50.932;6.780;2022-10-16T09:35:57;100290.00;;;22.90
9985;BMP180;16737;50.932;6.780;2022-10-16T09:38:27;100285.00;;;23.00
9985;BMP180;16737;50.932;6.780;2022-10-16T09:40:56;100288.00;;;23.10
9985;BMP180;16737;50.932;6.780;2022-10-16T09:43:27;100290.00;;;23.10
9985;BMP180;16737;50.932;6.780;2022-10-16T09:46:03;100282.00;;;23.20
9985;BMP180;16737;50.932;6.780;2022-10-16T09:48:37;100288.00;;;23.30
9985;BMP180;16737;50.932;6.780;2022-10-16T09:51:16;100282.00;;;23.40
9985;BMP180;16737;50.932;6.780;2022-10-16T09:53:46;100293.00;;;23.50
9985;BMP180;16737;50.932;6.780;2022-10-16T09:56:22;100302.00;;;23.60
9985;BMP180;16737;50.932;6.780;2022-10-16T09:58:50;100304.00;;;23.70
9985;BMP180;16737;50.932;6.780;2022-10-16T10:01:21;100304.00;;;23.80
9985;BMP180;16737;50.932;6.780;2022-10-16T10:03:50;100298.00;;;23.80
9985;BMP180;16737;50.932;6.780;2022-10-16T10:06:24;100298.00;;;23.90
9985;BMP180;16737;50.932;6.780;2022-10-16T10:08:57;100301.00;;;24.00
9985;BMP180;16737;50.932;6.780;2022-10-16T10:11:49;100290.00;;;24.00
9985;BMP180;16737;50.932;6.780;2022-10-16T10:14:24;100292.00;;;24.20
9985;BMP180;16737;50.932;6.780;2022-10-16T10:17:10;100292.00;;;24.30
9985;BMP180;16737;50.932;6.780;2022-10-16T10:19:40;100280.00;;;24.40
9985;BMP180;16737;50.932;6.780;2022-10-16T10:22:31;100270.00;;;24.40
9985;BMP180;16737;50.932;6.780;2022-10-16T10:25:19;100285.00;;;24.50
9985;BMP180;16737;50.932;6.780;2022-10-16T10:28:06;100292.00;;;24.50
9985;BMP180;16737;50.932;6.780;2022-10-16T10:30:42;100297.00;;;24.60
9985;BMP180;16737;50.932;6.780;2022-10-16T10:33:25;100298.00;;;24.60
9985;BMP180;16737;50.932;6.780;2022-10-16T10:36:05;100309.00;;;24.60
9985;BMP180;16737;50.932;6.780;2022-10-16T10:38:46;100302.00;;;24.60
9985;BMP180;16737;50.932;6.780;2022-10-16T10:41:48;100305.00;;;24.50
9985;BMP180;16737;50.932;6.780;2022-10-16T10:44:35;100298.00;;;24.50
9985;BMP180;16737;50.932;6.780;2022-10-16T10:47:18;100303.00;;;24.40
9985;BMP180;16737;50.932;6.780;2022-10-16T10:50:00;100298.00;;;24.30
9985;BMP180;16737;50.932;6.780;2022-10-16T10:52:46;100317.00;;;24.30
9985;BMP180;16737;50.932;6.780;2022-10-16T10:55:28;100301.00;;;24.20
9985;BMP180;16737;50.932;6.780;2022-10-16T10:58:35;100295.00;;;24.20
9985;BMP180;16737;50.932;6.780;2022-10-16T11:01:09;100295.00;;;24.20
9985;BMP180;16737;50.932;6.780;2022-10-16T11:07:04;100297.00;;;24.30
9985;BMP180;16737;50.932;6.780;2022-10-16T11:09:36;100306.00;;;24.30
9985;BMP180;16737;50.932;6.780;2022-10-16T11:12:12;100313.00;;;24.20
9985;BMP180;16737;50.932;6.780;2022-10-16T11:14:49;100324.00;;;24.20
9985;BMP180;16737;50.932;6.780;2022-10-16T11:17:23;100315.00;;;24.20
9985;BMP180;16737;50.932;6.780;2022-10-16T11:19:56;100317.00;;;24.20
9985;BMP180;16737;50.932;6.780;2022-10-16T11:22:33;100320.00;;;24.20
9985;BMP180;16737;50.932;6.780;2022-10-16T11:25:13;100319.00;;;24.30
9985;BMP180;16737;50.932;6.780;2022-10-16T11:27:49;100319.00;;;24.30
9985;BMP180;16737;50.932;6.780;2022-10-16T11:30:21;100317.00;;;24.40
9985;BMP180;16737;50.932;6.780;2022-10-16T11:33:06;100312.00;;;24.40
9985;BMP180;16737;50.932;6.780;2022-10-16T11:35:44;100319.00;;;24.50
9985;BMP180;16737;50.932;6.780;2022-10-16T11:38:26;100322.00;;;24.60
9985;BMP180;16737;50.932;6.780;2022-10-16T11:41:02;100335.00;;;24.70
9985;BMP180;16737;50.932;6.780;2022-10-16T11:43:37;100335.00;;;24.90
9985;BMP180;16737;50.932;6.780;2022-10-16T11:46:13;100330.00;;;25.00
9985;BMP180;16737;50.932;6.780;2022-10-16T11:48:46;100338.00;;;25.20
9985;BMP180;16737;50.932;6.780;2022-10-16T11:51:23;100345.00;;;25.30
9985;BMP180;16737;50.932;6.780;2022-10-16T11:54:02;100344.00;;;25.40
9985;BMP180;16737;50.932;6.780;2022-10-16T11:56:36;100341.00;;;25.60
9985;BMP180;16737;50.932;6.780;2022-10-16T11:59:14;100335.00;;;25.70
9985;BMP180;16737;50.932;6.780;2022-10-16T12:01:50;100325.00;;;25.80
9985;BMP180;16737;50.932;6.780;2022-10-16T12:04:27;100337.00;;;25.80
9985;BMP180;16737;50.932;6.780;2022-10-16T12:07:04;100343.00;;;25.90
9985;BMP180;16737;50.932;6.780;2022-10-16T12:09:38;100343.00;;;26.00
9985;BMP180;16737;50.932;6.780;2022-10-16T12:12:25;100352.00;;;26.00
9985;BMP180;16737;50.932;6.780;2022-10-16T12:15:02;100349.00;;;26.10
9985;BMP180;16737;50.932;6.780;2022-10-16T12:17:39;100348.00;;;26.20
9985;BMP180;16737;50.932;6.780;2022-10-16T12:20:28;100354.00;;;26.20
9985;BMP180;16737;50.932;6.780;2022-10-16T12:23:00;100349.00;;;26.20
9985;BMP180;16737;50.932;6.780;2022-10-16T12:25:32;100345.00;;;26.20
9985;BMP180;16737;50.932;6.780;2022-10-16T12:28:06;100341.00;;;26.20
9985;BMP180;16737;50.932;6.780;2022-10-16T12:30:35;100335.00;;;26.20
9985;BMP180;16737;50.932;6.780;2022-10-16T12:33:06;100338.00;;;26.20
9985;BMP180;16737;50.932;6.780;2022-10-16T12:35:44;100330.00;;;26.20
9985;BMP180;16737;50.932;6.780;2022-10-16T12:38:19;100324.00;;;26.20
9985;BMP180;16737;50.932;6.780;2022-10-16T12:40:58;100319.00;;;26.10
9985;BMP180;16737;50.932;6.780;2022-10-16T12:43:39;100314.00;;;26.10
9985;BMP180;16737;50.932;6.780;2022-10-16T12:46:37;100322.00;;;26.00
9985;BMP180;16737;50.932;6.780;2022-10-16T12:49:21;100338.00;;;26.00
9985;BMP180;16737;50.932;6.780;2022-10-16T12:51:50;100346.00;;;26.10
9985;BMP180;16737;50.932;6.780;2022-10-16T12:54:20;100341.00;;;26.10
9985;BMP180;16737;50.932;6.780;2022-10-16T12:57:12;100333.00;;;26.10
9985;BMP180;16737;50.932;6.780;2022-10-16T12:59:48;100346.00;;;26.10
9985;BMP180;16737;50.932;6.780;2022-10-16T13:02:56;100336.00;;;26.10
9985;BMP180;16737;50.932;6.780;2022-10-16T13:05:41;100335.00;;;26.10
9985;BMP180;16737;50.932;6.780;2022-10-16T13:08:29;100323.00;;;26.10
9985;BMP180;16737;50.932;6.780;2022-10-16T13:11:05;100331.00;;;26.20
9985;BMP180;16737;50.932;6.780;2022-10-16T13:14:10;100338.00;;;26.20
9985;BMP180;16737;50.932;6.780;2022-10-16T13:16:55;100343.00;;;26.20
9985;BMP180;16737;50.932;6.780;2022-10-16T13:19:33;100339.00;;;26.20
9985;BMP180;16737;50.932;6.780;2022-10-16T13:22:13;100341.00;;;26.20
9985;BMP180;16737;50.932;6.780;2022-10-16T13:24:58;100347.00;;;26.20
9985;BMP180;16737;50.932;6.780;2022-10-16T13:27:39;100341.00;;;26.20
9985;BMP180;16737;50.932;6.780;2022-10-16T13:30:18;100343.00;;;26.20
9985;BMP180;16737;50.932;6.780;2022-10-16T13:32:48;100336.00;;;26.30
9985;BMP180;16737;50.932;6.780;2022-10-16T13:35:23;100338.00;;;26.40
9985;BMP180;16737;50.932;6.780;2022-10-16T13:38:02;100339.00;;;26.40
9985;BMP180;16737;50.932;6.780;2022-10-16T13:40:29;100343.00;;;26.40
9985;BMP180;16737;50.932;6.780;2022-10-16T13:42:59;100345.00;;;26.40
9985;BMP180;16737;50.932;6.780;2022-10-16T13:45:27;100340.00;;;26.50
9985;BMP180;16737;50.932;6.780;2022-10-16T13:48:03;100335.00;;;26.50
9985;BMP180;16737;50.932;6.780;2022-10-16T13:50:30;100336.00;;;26.50
9985;BMP180;16737;50.932;6.780;2022-10-16T13:53:04;100340.00;;;26.60
9985;BMP180;16737;50.932;6.780;2022-10-16T13:55:32;100331.00;;;26.60
9985;BMP180;16737;50.932;6.780;2022-10-16T13:58:07;100309.00;;;26.60
9985;BMP180;16737;50.932;6.780;2022-10-16T14:00:36;100341.00;;;26.60
9985;BMP180;16737;50.932;6.780;2022-10-16T14:03:06;100343.00;;;26.60
9985;BMP180;16737;50.932;6.780;2022-10-16T14:05:34;100343.00;;;26.60
9985;BMP180;16737;50.932;6.780;2022-10-16T14:08:01;100345.00;;;26.60
9985;BMP180;16737;50.932;6.780;2022-10-16T14:10:31;100350.00;;;26.50
9985;BMP180;16737;50.932;6.780;2022-10-16T14:13:02;100358.00;;;26.50
9985;BMP180;16737;50.932;6.780;2022-10-16T14:15:31;100344.00;;;26.40
9985;BMP180;16737;50.932;6.780;2022-10-16T14:18:01;100342.00;;;26.40
9985;BMP180;16737;50.932;6.780;2022-10-16T14:20:32;100335.00;;;26.30
9985;BMP180;16737;50.932;6.780;2022-10-16T14:23:02;100334.00;;;26.20
9985;BMP180;16737;50.932;6.780;2022-10-16T14:25:31;100338.00;;;26.20
9985;BMP180;16737;50.932;6.780;2022-10-16T14:28:02;100331.00;;;26.10
9985;BMP180;16737;50.932;6.780;2022-10-16T14:30:32;100333.00;;;26.00
9985;BMP180;16737;50.932;6.780;2022-10-16T14:33:04;100332.00;;;25.90
9985;BMP180;16737;50.932;6.780;2022-10-16T14:35:33;100330.00;;;25.80
9985;BMP180;16737;50.932;6.780;2022-10-16T14:38:03;100319.00;;;25.70
9985;BMP180;16737;50.932;6.780;2022-10-16T14:40:33;100324.00;;;25.70
9985;BMP180;16737;50.932;6.780;2022-10-16T14:43:02;100332.00;;;25.60
9985;BMP180;16737;50.932;6.780;2022-10-16T14:45:32;100337.00;;;25.50